This is the latest recevied weather packets stored in our database for station/object SP3VBV-2. If no packets are shown the sender has not sent any weather packets the latest 10 day(s).
| Time | Temp. | Humidity | Pressure | Rain* | Wind** | Luminosity | Snow |
|---|---|---|---|---|---|---|---|
| 1777463506 | 7.78° C | 40% | 1028 hPa | - | - | - | - |
| 1777463226 | 7.78° C | 40% | 1028.1 hPa | - | - | - | - |
| 1777462898 | 8.33° C | 41% | 1028.1 hPa | - | - | - | - |
| 1777462298 | 7.78° C | 42% | 1028 hPa | - | - | - | - |
| 1777461698 | 7.78° C | 42% | 1028 hPa | - | - | - | - |
| 1777461098 | 7.78° C | 40% | 1028 hPa | - | - | - | - |
| 1777460498 | 8.33° C | 45% | 1027.8 hPa | - | - | - | - |
| 1777459898 | 7.22° C | 39% | 1028 hPa | - | - | - | - |
| 1777458784 | 7.78° C | 39% | 1028.1 hPa | - | - | - | - |
| 1777458106 | 7.22° C | 38% | 1028.2 hPa | - | - | - | - |
| 1777457506 | 6.67° C | 35% | 1028.2 hPa | - | - | - | - |
| 1777456306 | 7.22° C | 38% | 1028 hPa | - | - | - | - |
| 1777455705 | 7.22° C | 40% | 1028.1 hPa | - | - | - | - |
| 1777455105 | 6.67° C | 37% | 1028.1 hPa | - | - | - | - |
| 1777454506 | 6.67° C | 35% | 1028.1 hPa | - | - | - | - |
| 1777453905 | 6.67° C | 36% | 1028.2 hPa | - | - | - | - |
| 1777453314 | 6.67° C | 37% | 1028.1 hPa | - | - | - | - |
| 1777452705 | 6.67° C | 39% | 1027.9 hPa | - | - | - | - |
| 1777452105 | 6.67° C | 37% | 1028.2 hPa | - | - | - | - |
| 1777451506 | 6.11° C | 42% | 1028.1 hPa | - | - | - | - |
| 1777450908 | 6.11° C | 41% | 1027.9 hPa | - | - | - | - |
| 1777450305 | 6.67° C | 40% | 1028 hPa | - | - | - | - |
| 1777449705 | 5.56° C | 42% | 1027.9 hPa | - | - | - | - |
| 1777449105 | 5.56° C | 41% | 1027.8 hPa | - | - | - | - |
| 1777448505 | 5.56° C | 43% | 1027.6 hPa | - | - | - | - |
* Rain since midnight (hover to see other rain measurements)
** Current wind speed in m/s (hover to see current wind gust speed)